sensor_id;sensor_type;location;lat;lon;timestamp;P1;durP1;ratioP1;P2;durP2;ratioP2
26530;SDS011;14201;43.188;24.160;2023-03-14T00:00:09;12.73;;;8.65;;
26530;SDS011;14201;43.188;24.160;2023-03-14T00:02:37;12.65;;;9.07;;
26530;SDS011;14201;43.188;24.160;2023-03-14T00:05:02;13.80;;;8.45;;
26530;SDS011;14201;43.188;24.160;2023-03-14T00:07:35;13.35;;;9.18;;
26530;SDS011;14201;43.188;24.160;2023-03-14T00:10:06;12.38;;;8.63;;
26530;SDS011;14201;43.188;24.160;2023-03-14T00:12:33;12.82;;;8.73;;
26530;SDS011;14201;43.188;24.160;2023-03-14T00:14:59;11.23;;;8.65;;
26530;SDS011;14201;43.188;24.160;2023-03-14T00:17:26;13.75;;;9.10;;
26530;SDS011;14201;43.188;24.160;2023-03-14T00:19:52;12.50;;;8.82;;
26530;SDS011;14201;43.188;24.160;2023-03-14T00:22:19;13.75;;;9.07;;
26530;SDS011;14201;43.188;24.160;2023-03-14T00:24:45;15.25;;;9.32;;
26530;SDS011;14201;43.188;24.160;2023-03-14T00:27:10;11.55;;;8.25;;
26530;SDS011;14201;43.188;24.160;2023-03-14T00:29:36;12.80;;;8.82;;
26530;SDS011;14201;43.188;24.160;2023-03-14T00:32:02;13.98;;;9.50;;
26530;SDS011;14201;43.188;24.160;2023-03-14T00:34:31;14.48;;;8.90;;
26530;SDS011;14201;43.188;24.160;2023-03-14T00:39:23;13.98;;;9.68;;
26530;SDS011;14201;43.188;24.160;2023-03-14T00:41:48;12.50;;;9.32;;
26530;SDS011;14201;43.188;24.160;2023-03-14T00:44:14;12.52;;;9.00;;
26530;SDS011;14201;43.188;24.160;2023-03-14T00:46:40;13.13;;;9.13;;
26530;SDS011;14201;43.188;24.160;2023-03-14T00:49:05;13.98;;;8.38;;
26530;SDS011;14201;43.188;24.160;2023-03-14T00:51:31;10.50;;;8.50;;
26530;SDS011;14201;43.188;24.160;2023-03-14T00:53:56;11.35;;;7.78;;
26530;SDS011;14201;43.188;24.160;2023-03-14T00:56:22;13.40;;;8.38;;
26530;SDS011;14201;43.188;24.160;2023-03-14T00:58:47;12.23;;;9.63;;
26530;SDS011;14201;43.188;24.160;2023-03-14T01:01:16;12.65;;;9.13;;
26530;SDS011;14201;43.188;24.160;2023-03-14T01:03:43;12.50;;;9.25;;
26530;SDS011;14201;43.188;24.160;2023-03-14T01:06:09;14.70;;;9.75;;
26530;SDS011;14201;43.188;24.160;2023-03-14T01:08:35;14.45;;;8.70;;
26530;SDS011;14201;43.188;24.160;2023-03-14T01:11:04;14.13;;;8.88;;
26530;SDS011;14201;43.188;24.160;2023-03-14T01:13:34;12.90;;;7.70;;
26530;SDS011;14201;43.188;24.160;2023-03-14T01:16:01;12.88;;;8.68;;
26530;SDS011;14201;43.188;24.160;2023-03-14T01:18:30;13.02;;;8.35;;
26530;SDS011;14201;43.188;24.160;2023-03-14T01:20:56;11.63;;;8.35;;
26530;SDS011;14201;43.188;24.160;2023-03-14T01:23:22;12.93;;;8.95;;
26530;SDS011;14201;43.188;24.160;2023-03-14T01:25:48;12.70;;;8.80;;
26530;SDS011;14201;43.188;24.160;2023-03-14T01:28:13;13.63;;;9.38;;
26530;SDS011;14201;43.188;24.160;2023-03-14T01:30:39;15.80;;;9.02;;
26530;SDS011;14201;43.188;24.160;2023-03-14T01:33:04;11.35;;;8.55;;
26530;SDS011;14201;43.188;24.160;2023-03-14T01:35:30;11.70;;;8.35;;
26530;SDS011;14201;43.188;24.160;2023-03-14T01:37:55;12.60;;;8.43;;
26530;SDS011;14201;43.188;24.160;2023-03-14T01:40:21;12.27;;;8.48;;
26530;SDS011;14201;43.188;24.160;2023-03-14T01:42:53;11.15;;;7.53;;
26530;SDS011;14201;43.188;24.160;2023-03-14T01:48:26;12.25;;;7.85;;
26530;SDS011;14201;43.188;24.160;2023-03-14T01:50:56;11.25;;;7.75;;
26530;SDS011;14201;43.188;24.160;2023-03-14T01:53:24;15.93;;;8.00;;
26530;SDS011;14201;43.188;24.160;2023-03-14T01:55:50;14.38;;;8.27;;
26530;SDS011;14201;43.188;24.160;2023-03-14T01:58:21;10.73;;;7.72;;
26530;SDS011;14201;43.188;24.160;2023-03-14T02:00:50;11.68;;;7.78;;
26530;SDS011;14201;43.188;24.160;2023-03-14T02:03:16;11.18;;;7.60;;
26530;SDS011;14201;43.188;24.160;2023-03-14T02:05:46;13.60;;;8.75;;
26530;SDS011;14201;43.188;24.160;2023-03-14T02:08:16;11.70;;;8.75;;
26530;SDS011;14201;43.188;24.160;2023-03-14T02:10:45;11.57;;;8.32;;
26530;SDS011;14201;43.188;24.160;2023-03-14T02:13:13;12.85;;;8.32;;
26530;SDS011;14201;43.188;24.160;2023-03-14T02:15:40;11.93;;;8.48;;
26530;SDS011;14201;43.188;24.160;2023-03-14T02:18:06;11.45;;;8.15;;
26530;SDS011;14201;43.188;24.160;2023-03-14T02:26:29;12.63;;;8.32;;
26530;SDS011;14201;43.188;24.160;2023-03-14T02:29:02;11.10;;;8.15;;
26530;SDS011;14201;43.188;24.160;2023-03-14T02:31:27;13.10;;;8.18;;
26530;SDS011;14201;43.188;24.160;2023-03-14T02:33:53;14.80;;;8.05;;
26530;SDS011;14201;43.188;24.160;2023-03-14T02:36:20;12.20;;;7.22;;
26530;SDS011;14201;43.188;24.160;2023-03-14T02:41:20;13.25;;;7.70;;
26530;SDS011;14201;43.188;24.160;2023-03-14T02:43:46;8.98;;;6.85;;
26530;SDS011;14201;43.188;24.160;2023-03-14T02:46:13;10.60;;;7.70;;
26530;SDS011;14201;43.188;24.160;2023-03-14T02:48:43;12.10;;;7.53;;
26530;SDS011;14201;43.188;24.160;2023-03-14T02:51:10;15.10;;;8.30;;
26530;SDS011;14201;43.188;24.160;2023-03-14T02:53:38;12.38;;;7.80;;
26530;SDS011;14201;43.188;24.160;2023-03-14T02:56:06;11.07;;;6.95;;
26530;SDS011;14201;43.188;24.160;2023-03-14T02:58:32;11.50;;;7.65;;
26530;SDS011;14201;43.188;24.160;2023-03-14T03:00:58;10.35;;;7.22;;
26530;SDS011;14201;43.188;24.160;2023-03-14T03:03:24;8.98;;;7.03;;
26530;SDS011;14201;43.188;24.160;2023-03-14T03:05:50;8.77;;;6.38;;
26530;SDS011;14201;43.188;24.160;2023-03-14T03:08:18;11.65;;;7.32;;
26530;SDS011;14201;43.188;24.160;2023-03-14T03:10:44;10.30;;;6.80;;
26530;SDS011;14201;43.188;24.160;2023-03-14T03:13:10;11.32;;;7.97;;
26530;SDS011;14201;43.188;24.160;2023-03-14T03:15:35;12.23;;;7.95;;
26530;SDS011;14201;43.188;24.160;2023-03-14T03:18:01;12.65;;;7.47;;
26530;SDS011;14201;43.188;24.160;2023-03-14T03:20:27;9.80;;;7.32;;
26530;SDS011;14201;43.188;24.160;2023-03-14T03:22:52;12.05;;;8.20;;
26530;SDS011;14201;43.188;24.160;2023-03-14T03:25:18;9.80;;;7.78;;
26530;SDS011;14201;43.188;24.160;2023-03-14T03:27:43;10.75;;;7.95;;
26530;SDS011;14201;43.188;24.160;2023-03-14T03:30:09;11.70;;;8.15;;
26530;SDS011;14201;43.188;24.160;2023-03-14T03:32:35;11.45;;;7.63;;
26530;SDS011;14201;43.188;24.160;2023-03-14T03:35:02;9.68;;;7.50;;
26530;SDS011;14201;43.188;24.160;2023-03-14T03:37:30;10.90;;;7.47;;
26530;SDS011;14201;43.188;24.160;2023-03-14T03:39:56;10.70;;;7.68;;
26530;SDS011;14201;43.188;24.160;2023-03-14T03:42:22;11.90;;;7.20;;
26530;SDS011;14201;43.188;24.160;2023-03-14T03:44:47;11.13;;;7.50;;
26530;SDS011;14201;43.188;24.160;2023-03-14T03:47:13;11.65;;;7.55;;
26530;SDS011;14201;43.188;24.160;2023-03-14T03:49:39;10.05;;;7.57;;
26530;SDS011;14201;43.188;24.160;2023-03-14T03:52:04;12.43;;;7.30;;
26530;SDS011;14201;43.188;24.160;2023-03-14T03:54:30;9.82;;;7.50;;
26530;SDS011;14201;43.188;24.160;2023-03-14T03:56:55;12.75;;;7.57;;
26530;SDS011;14201;43.188;24.160;2023-03-14T03:59:21;11.20;;;7.28;;
26530;SDS011;14201;43.188;24.160;2023-03-14T04:01:46;10.57;;;7.30;;
26530;SDS011;14201;43.188;24.160;2023-03-14T04:04:12;10.52;;;7.32;;
26530;SDS011;14201;43.188;24.160;2023-03-14T04:06:38;11.40;;;7.45;;
26530;SDS011;14201;43.188;24.160;2023-03-14T04:09:05;12.63;;;7.65;;
26530;SDS011;14201;43.188;24.160;2023-03-14T04:11:30;10.02;;;6.95;;
26530;SDS011;14201;43.188;24.160;2023-03-14T04:13:56;11.15;;;7.30;;
26530;SDS011;14201;43.188;24.160;2023-03-14T04:16:23;11.07;;;7.10;;
26530;SDS011;14201;43.188;24.160;2023-03-14T04:18:49;11.15;;;6.70;;
26530;SDS011;14201;43.188;24.160;2023-03-14T04:21:15;13.00;;;7.60;;
26530;SDS011;14201;43.188;24.160;2023-03-14T04:23:41;11.18;;;7.50;;
26530;SDS011;14201;43.188;24.160;2023-03-14T04:26:07;9.93;;;6.32;;
26530;SDS011;14201;43.188;24.160;2023-03-14T04:28:33;9.02;;;6.18;;
26530;SDS011;14201;43.188;24.160;2023-03-14T04:30:58;10.25;;;6.07;;
26530;SDS011;14201;43.188;24.160;2023-03-14T04:33:24;8.70;;;6.25;;
26530;SDS011;14201;43.188;24.160;2023-03-14T04:35:52;8.10;;;5.90;;
26530;SDS011;14201;43.188;24.160;2023-03-14T04:38:19;10.30;;;6.20;;
26530;SDS011;14201;43.188;24.160;2023-03-14T04:40:44;11.10;;;6.25;;
26530;SDS011;14201;43.188;24.160;2023-03-14T04:43:10;10.05;;;6.43;;
26530;SDS011;14201;43.188;24.160;2023-03-14T04:45:36;12.23;;;6.68;;
26530;SDS011;14201;43.188;24.160;2023-03-14T04:48:06;10.37;;;6.90;;
26530;SDS011;14201;43.188;24.160;2023-03-14T04:50:31;17.90;;;6.53;;
26530;SDS011;14201;43.188;24.160;2023-03-14T04:52:57;11.82;;;6.35;;
26530;SDS011;14201;43.188;24.160;2023-03-14T04:55:22;9.77;;;6.28;;
26530;SDS011;14201;43.188;24.160;2023-03-14T04:57:48;29.92;;;18.17;;
26530;SDS011;14201;43.188;24.160;2023-03-14T05:00:13;30.30;;;19.48;;
26530;SDS011;14201;43.188;24.160;2023-03-14T05:02:39;13.98;;;7.45;;
26530;SDS011;14201;43.188;24.160;2023-03-14T05:05:05;9.82;;;5.53;;
26530;SDS011;14201;43.188;24.160;2023-03-14T05:07:30;9.43;;;6.72;;
26530;SDS011;14201;43.188;24.160;2023-03-14T05:09:56;10.15;;;6.75;;
26530;SDS011;14201;43.188;24.160;2023-03-14T05:12:22;12.63;;;6.80;;
26530;SDS011;14201;43.188;24.160;2023-03-14T05:14:47;22.15;;;11.48;;
26530;SDS011;14201;43.188;24.160;2023-03-14T05:17:13;18.40;;;9.48;;
26530;SDS011;14201;43.188;24.160;2023-03-14T05:19:40;23.27;;;10.50;;
26530;SDS011;14201;43.188;24.160;2023-03-14T05:22:06;15.50;;;8.18;;
26530;SDS011;14201;43.188;24.160;2023-03-14T05:24:32;10.40;;;7.20;;
26530;SDS011;14201;43.188;24.160;2023-03-14T05:26:58;10.75;;;6.88;;
26530;SDS011;14201;43.188;24.160;2023-03-14T05:29:23;10.55;;;7.57;;
26530;SDS011;14201;43.188;24.160;2023-03-14T05:31:49;13.80;;;8.07;;
26530;SDS011;14201;43.188;24.160;2023-03-14T05:34:14;12.20;;;7.63;;
26530;SDS011;14201;43.188;24.160;2023-03-14T05:36:40;8.07;;;6.82;;
26530;SDS011;14201;43.188;24.160;2023-03-14T05:39:06;11.77;;;7.30;;
26530;SDS011;14201;43.188;24.160;2023-03-14T05:41:31;14.63;;;7.13;;
26530;SDS011;14201;43.188;24.160;2023-03-14T05:43:57;17.90;;;6.63;;
26530;SDS011;14201;43.188;24.160;2023-03-14T05:46:22;8.35;;;5.95;;
26530;SDS011;14201;43.188;24.160;2023-03-14T05:48:48;10.13;;;6.25;;
26530;SDS011;14201;43.188;24.160;2023-03-14T05:51:13;9.13;;;6.10;;
26530;SDS011;14201;43.188;24.160;2023-03-14T05:53:39;9.98;;;5.82;;
26530;SDS011;14201;43.188;24.160;2023-03-14T05:56:05;11.48;;;6.07;;
26530;SDS011;14201;43.188;24.160;2023-03-14T05:58:31;14.07;;;7.00;;
26530;SDS011;14201;43.188;24.160;2023-03-14T06:00:57;14.13;;;5.35;;
26530;SDS011;14201;43.188;24.160;2023-03-14T06:03:22;9.55;;;5.85;;
26530;SDS011;14201;43.188;24.160;2023-03-14T06:05:51;14.27;;;7.82;;
26530;SDS011;14201;43.188;24.160;2023-03-14T06:08:16;16.83;;;8.07;;
26530;SDS011;14201;43.188;24.160;2023-03-14T06:10:42;12.02;;;7.13;;
26530;SDS011;14201;43.188;24.160;2023-03-14T06:13:07;8.20;;;5.25;;
26530;SDS011;14201;43.188;24.160;2023-03-14T06:15:33;10.60;;;5.60;;
26530;SDS011;14201;43.188;24.160;2023-03-14T06:18:00;9.48;;;4.80;;
26530;SDS011;14201;43.188;24.160;2023-03-14T06:20:25;7.82;;;4.68;;
26530;SDS011;14201;43.188;24.160;2023-03-14T06:22:51;10.60;;;4.28;;
26530;SDS011;14201;43.188;24.160;2023-03-14T06:25:17;7.18;;;4.55;;
26530;SDS011;14201;43.188;24.160;2023-03-14T06:27:42;8.40;;;4.80;;
26530;SDS011;14201;43.188;24.160;2023-03-14T06:30:08;6.18;;;3.72;;
26530;SDS011;14201;43.188;24.160;2023-03-14T06:32:34;7.20;;;4.20;;
26530;SDS011;14201;43.188;24.160;2023-03-14T06:37:29;6.28;;;3.88;;
26530;SDS011;14201;43.188;24.160;2023-03-14T18:08:38;5.93;;;1.40;;
26530;SDS011;14201;43.188;24.160;2023-03-14T18:11:06;6.68;;;1.50;;
26530;SDS011;14201;43.188;24.160;2023-03-14T18:13:32;5.90;;;3.50;;
26530;SDS011;14201;43.188;24.160;2023-03-14T18:15:58;9.88;;;4.50;;
26530;SDS011;14201;43.188;24.160;2023-03-14T18:18:23;14.35;;;4.75;;
26530;SDS011;14201;43.188;24.160;2023-03-14T18:20:50;7.05;;;4.00;;
26530;SDS011;14201;43.188;24.160;2023-03-14T18:23:17;13.35;;;3.55;;
26530;SDS011;14201;43.188;24.160;2023-03-14T18:25:45;10.60;;;3.65;;
26530;SDS011;14201;43.188;24.160;2023-03-14T18:28:11;10.02;;;3.92;;
26530;SDS011;14201;43.188;24.160;2023-03-14T18:30:36;8.30;;;3.80;;
26530;SDS011;14201;43.188;24.160;2023-03-14T18:33:02;8.32;;;4.15;;
26530;SDS011;14201;43.188;24.160;2023-03-14T18:35:28;10.88;;;4.43;;
26530;SDS011;14201;43.188;24.160;2023-03-14T18:37:53;11.13;;;5.05;;
26530;SDS011;14201;43.188;24.160;2023-03-14T18:40:19;15.73;;;4.95;;
26530;SDS011;14201;43.188;24.160;2023-03-14T18:42:45;11.02;;;4.53;;
26530;SDS011;14201;43.188;24.160;2023-03-14T18:45:10;10.82;;;4.68;;
26530;SDS011;14201;43.188;24.160;2023-03-14T18:47:37;11.18;;;5.30;;
26530;SDS011;14201;43.188;24.160;2023-03-14T18:50:03;10.05;;;4.63;;
26530;SDS011;14201;43.188;24.160;2023-03-14T18:52:30;8.30;;;3.10;;
26530;SDS011;14201;43.188;24.160;2023-03-14T18:54:55;8.85;;;3.70;;
26530;SDS011;14201;43.188;24.160;2023-03-14T18:57:21;9.07;;;3.55;;
26530;SDS011;14201;43.188;24.160;2023-03-14T18:59:47;9.45;;;3.60;;
26530;SDS011;14201;43.188;24.160;2023-03-14T19:02:12;14.95;;;5.07;;
26530;SDS011;14201;43.188;24.160;2023-03-14T19:04:38;12.90;;;5.40;;
26530;SDS011;14201;43.188;24.160;2023-03-14T19:07:04;16.15;;;6.10;;
26530;SDS011;14201;43.188;24.160;2023-03-14T19:09:30;11.50;;;5.72;;
26530;SDS011;14201;43.188;24.160;2023-03-14T19:11:55;18.70;;;5.65;;
26530;SDS011;14201;43.188;24.160;2023-03-14T19:14:21;19.58;;;6.60;;
26530;SDS011;14201;43.188;24.160;2023-03-14T19:16:46;14.88;;;6.93;;
26530;SDS011;14201;43.188;24.160;2023-03-14T19:19:12;8.00;;;4.18;;
26530;SDS011;14201;43.188;24.160;2023-03-14T19:21:38;5.63;;;3.45;;
26530;SDS011;14201;43.188;24.160;2023-03-14T19:24:03;12.48;;;4.65;;
26530;SDS011;14201;43.188;24.160;2023-03-14T19:26:30;9.45;;;5.88;;
26530;SDS011;14201;43.188;24.160;2023-03-14T19:28:56;12.57;;;5.93;;
26530;SDS011;14201;43.188;24.160;2023-03-14T19:31:23;13.63;;;6.95;;
26530;SDS011;14201;43.188;24.160;2023-03-14T19:33:49;12.00;;;7.38;;
26530;SDS011;14201;43.188;24.160;2023-03-14T19:48:29;9.65;;;5.88;;
26530;SDS011;14201;43.188;24.160;2023-03-14T19:50:54;12.13;;;6.03;;
26530;SDS011;14201;43.188;24.160;2023-03-14T19:53:20;11.75;;;7.25;;
26530;SDS011;14201;43.188;24.160;2023-03-14T19:55:46;14.10;;;8.15;;
26530;SDS011;14201;43.188;24.160;2023-03-14T19:58:11;13.40;;;7.47;;
26530;SDS011;14201;43.188;24.160;2023-03-14T20:00:37;11.88;;;6.15;;
26530;SDS011;14201;43.188;24.160;2023-03-14T20:03:03;14.95;;;7.50;;
26530;SDS011;14201;43.188;24.160;2023-03-14T20:05:28;10.73;;;5.55;;
26530;SDS011;14201;43.188;24.160;2023-03-14T20:07:54;16.85;;;6.97;;
26530;SDS011;14201;43.188;24.160;2023-03-14T20:10:20;12.82;;;7.40;;
26530;SDS011;14201;43.188;24.160;2023-03-14T20:12:48;10.88;;;6.60;;
26530;SDS011;14201;43.188;24.160;2023-03-14T20:15:15;12.07;;;6.20;;
26530;SDS011;14201;43.188;24.160;2023-03-14T20:17:44;11.70;;;6.65;;
26530;SDS011;14201;43.188;24.160;2023-03-14T20:20:10;11.63;;;6.32;;
26530;SDS011;14201;43.188;24.160;2023-03-14T20:22:36;9.77;;;6.95;;
26530;SDS011;14201;43.188;24.160;2023-03-14T20:25:06;15.45;;;7.68;;
26530;SDS011;14201;43.188;24.160;2023-03-14T20:27:36;14.60;;;7.80;;
26530;SDS011;14201;43.188;24.160;2023-03-14T20:30:03;14.27;;;7.72;;
26530;SDS011;14201;43.188;24.160;2023-03-14T20:32:36;14.00;;;7.90;;
26530;SDS011;14201;43.188;24.160;2023-03-14T20:35:02;14.82;;;8.27;;
26530;SDS011;14201;43.188;24.160;2023-03-14T20:37:27;13.52;;;8.15;;
26530;SDS011;14201;43.188;24.160;2023-03-14T20:39:53;17.98;;;7.95;;
26530;SDS011;14201;43.188;24.160;2023-03-14T20:42:19;15.95;;;8.05;;
26530;SDS011;14201;43.188;24.160;2023-03-14T20:44:45;15.07;;;8.88;;
26530;SDS011;14201;43.188;24.160;2023-03-14T20:47:11;14.27;;;8.52;;
26530;SDS011;14201;43.188;24.160;2023-03-14T20:49:37;13.50;;;8.02;;
26530;SDS011;14201;43.188;24.160;2023-03-14T20:52:03;17.58;;;8.73;;
26530;SDS011;14201;43.188;24.160;2023-03-14T20:54:30;13.77;;;8.68;;
26530;SDS011;14201;43.188;24.160;2023-03-14T20:56:55;14.35;;;8.48;;
26530;SDS011;14201;43.188;24.160;2023-03-14T20:59:21;15.82;;;9.10;;
26530;SDS011;14201;43.188;24.160;2023-03-14T21:01:48;10.73;;;6.93;;
26530;SDS011;14201;43.188;24.160;2023-03-14T21:04:15;11.93;;;6.97;;
26530;SDS011;14201;43.188;24.160;2023-03-14T21:06:42;10.88;;;7.80;;
26530;SDS011;14201;43.188;24.160;2023-03-14T21:09:09;17.30;;;7.80;;
26530;SDS011;14201;43.188;24.160;2023-03-14T21:11:35;15.43;;;8.10;;
26530;SDS011;14201;43.188;24.160;2023-03-14T21:14:01;14.10;;;8.20;;
26530;SDS011;14201;43.188;24.160;2023-03-14T21:16:28;14.27;;;8.43;;
26530;SDS011;14201;43.188;24.160;2023-03-14T21:18:54;14.57;;;8.48;;
26530;SDS011;14201;43.188;24.160;2023-03-14T21:21:19;19.20;;;9.32;;
26530;SDS011;14201;43.188;24.160;2023-03-14T21:23:46;16.20;;;9.40;;
26530;SDS011;14201;43.188;24.160;2023-03-14T21:26:12;21.05;;;10.23;;
26530;SDS011;14201;43.188;24.160;2023-03-14T21:28:38;15.38;;;9.77;;
26530;SDS011;14201;43.188;24.160;2023-03-14T21:31:07;18.88;;;9.77;;
26530;SDS011;14201;43.188;24.160;2023-03-14T21:33:35;16.38;;;9.30;;
26530;SDS011;14201;43.188;24.160;2023-03-14T21:36:02;14.50;;;7.47;;
26530;SDS011;14201;43.188;24.160;2023-03-14T21:38:28;12.55;;;7.63;;
26530;SDS011;14201;43.188;24.160;2023-03-14T21:40:55;17.15;;;8.85;;
26530;SDS011;14201;43.188;24.160;2023-03-14T21:43:21;15.15;;;9.20;;
26530;SDS011;14201;43.188;24.160;2023-03-14T21:45:48;15.20;;;9.75;;
26530;SDS011;14201;43.188;24.160;2023-03-14T21:48:14;19.35;;;10.15;;
26530;SDS011;14201;43.188;24.160;2023-03-14T21:50:39;16.17;;;10.27;;
26530;SDS011;14201;43.188;24.160;2023-03-14T21:53:05;15.00;;;8.25;;
26530;SDS011;14201;43.188;24.160;2023-03-14T21:55:31;14.20;;;8.10;;
26530;SDS011;14201;43.188;24.160;2023-03-14T21:57:56;13.93;;;9.15;;
26530;SDS011;14201;43.188;24.160;2023-03-14T22:00:22;14.77;;;9.38;;
26530;SDS011;14201;43.188;24.160;2023-03-14T22:02:50;14.90;;;9.77;;
26530;SDS011;14201;43.188;24.160;2023-03-14T22:05:19;16.25;;;10.32;;
26530;SDS011;14201;43.188;24.160;2023-03-14T22:07:45;19.20;;;10.30;;
26530;SDS011;14201;43.188;24.160;2023-03-14T22:10:11;15.50;;;9.88;;
26530;SDS011;14201;43.188;24.160;2023-03-14T22:12:38;17.02;;;9.80;;
26530;SDS011;14201;43.188;24.160;2023-03-14T22:15:05;15.13;;;9.75;;
26530;SDS011;14201;43.188;24.160;2023-03-14T22:17:32;15.10;;;9.45;;
26530;SDS011;14201;43.188;24.160;2023-03-14T22:19:58;16.70;;;9.60;;
26530;SDS011;14201;43.188;24.160;2023-03-14T22:22:24;15.40;;;9.25;;
26530;SDS011;14201;43.188;24.160;2023-03-14T22:24:51;20.23;;;10.35;;
26530;SDS011;14201;43.188;24.160;2023-03-14T22:27:17;16.75;;;9.23;;
26530;SDS011;14201;43.188;24.160;2023-03-14T22:29:44;17.92;;;9.30;;
26530;SDS011;14201;43.188;24.160;2023-03-14T22:32:10;18.70;;;9.30;;
26530;SDS011;14201;43.188;24.160;2023-03-14T22:34:36;18.50;;;9.77;;
26530;SDS011;14201;43.188;24.160;2023-03-14T22:37:02;21.60;;;10.25;;
26530;SDS011;14201;43.188;24.160;2023-03-14T22:39:30;22.77;;;10.70;;
26530;SDS011;14201;43.188;24.160;2023-03-14T22:41:57;19.60;;;10.88;;
26530;SDS011;14201;43.188;24.160;2023-03-14T22:44:23;19.17;;;10.80;;
26530;SDS011;14201;43.188;24.160;2023-03-14T22:46:49;19.27;;;9.85;;
26530;SDS011;14201;43.188;24.160;2023-03-14T22:49:15;13.38;;;9.32;;
26530;SDS011;14201;43.188;24.160;2023-03-14T22:51:41;16.63;;;8.85;;
26530;SDS011;14201;43.188;24.160;2023-03-14T22:54:07;18.20;;;9.63;;
26530;SDS011;14201;43.188;24.160;2023-03-14T22:56:33;15.27;;;9.90;;
26530;SDS011;14201;43.188;24.160;2023-03-14T22:58:59;16.05;;;9.68;;
26530;SDS011;14201;43.188;24.160;2023-03-14T23:01:26;16.33;;;9.50;;
26530;SDS011;14201;43.188;24.160;2023-03-14T23:03:52;20.80;;;10.05;;
26530;SDS011;14201;43.188;24.160;2023-03-14T23:06:19;15.15;;;10.07;;
26530;SDS011;14201;43.188;24.160;2023-03-14T23:08:45;21.13;;;9.77;;
26530;SDS011;14201;43.188;24.160;2023-03-14T23:11:11;18.10;;;10.20;;
26530;SDS011;14201;43.188;24.160;2023-03-14T23:13:38;18.15;;;10.20;;
26530;SDS011;14201;43.188;24.160;2023-03-14T23:18:37;15.82;;;9.52;;
26530;SDS011;14201;43.188;24.160;2023-03-14T23:21:11;16.95;;;10.05;;
26530;SDS011;14201;43.188;24.160;2023-03-14T23:23:39;15.32;;;10.32;;
26530;SDS011;14201;43.188;24.160;2023-03-14T23:26:07;17.15;;;10.02;;
26530;SDS011;14201;43.188;24.160;2023-03-14T23:28:34;19.88;;;10.82;;
26530;SDS011;14201;43.188;24.160;2023-03-14T23:31:00;14.07;;;10.13;;
26530;SDS011;14201;43.188;24.160;2023-03-14T23:33:26;15.10;;;10.20;;
26530;SDS011;14201;43.188;24.160;2023-03-14T23:35:53;15.23;;;9.43;;
26530;SDS011;14201;43.188;24.160;2023-03-14T23:38:19;14.80;;;9.77;;
26530;SDS011;14201;43.188;24.160;2023-03-14T23:40:45;18.85;;;10.15;;
26530;SDS011;14201;43.188;24.160;2023-03-14T23:43:11;12.85;;;9.15;;
26530;SDS011;14201;43.188;24.160;2023-03-14T23:45:37;18.13;;;9.45;;
26530;SDS011;14201;43.188;24.160;2023-03-14T23:48:03;15.40;;;9.52;;
26530;SDS011;14201;43.188;24.160;2023-03-14T23:50:29;16.70;;;9.48;;
26530;SDS011;14201;43.188;24.160;2023-03-14T23:52:54;18.73;;;9.95;;
26530;SDS011;14201;43.188;24.160;2023-03-14T23:55:20;13.73;;;9.52;;
26530;SDS011;14201;43.188;24.160;2023-03-14T23:57:46;15.00;;;9.98;;
